ADDS METAR Data INFO
IDs: Format: Raw Decoded Include TAF

Data at: 0210 UTC 19 Jul 2018

KDAB 190153Z 21004KT 10SM BKN150 25/25 A2998 RMK SLP150 T02500250
KDAB 190053Z 19005KT 10SM FEW060 SCT120 BKN150 25/24 A2996 RMK SLP145 T02500244
KDAB 182353Z 19005KT 10SM FEW060 SCT120 BKN150 26/24 A2997 RMK SLP146 60001 T02560244 10256 20239 55007
KDAB 182253Z 19007KT 10SM FEW060 SCT120 BKN150 26/24 A2996 RMK SLP145 T02560244
KDAB 182153Z 16004KT 10SM FEW005 FEW060 SCT120 OVC150 26/25 A2998 RMK RAE32 SLP150 CB DSNT NW P0000 T02560250
KDAB 182053Z 14004KT 10SM -RA FEW060 SCT090 BKN120 OVC150 25/25 A2999 RMK RAB20 TSE22 SLP153 TS DSIPTD P0000 60001 T02500250 58012
KDAB 182023Z 00000KT 10SM -RA FEW036 SCT070 SCT120 BKN150 25/24 A3001 RMK RAB20 TSE22 TS DSIPTD P0000 T02500244
KDAB 181953Z 15003KT 10SM TS FEW036CB SCT070 BKN150 24/24 A3002 RMK SLP166 OCNL LTGICCG OHD S TS OHD S MOV E T02440244
KDAB 181803Z 26006KT 10SM -TSRA SCT036CB BKN070 BKN110 24/23 A3002 RMK AO2 LTG DSNT ALQDS FRQ LTGCG OHD-NE-SE-SW TS OHD-NE-SE-SW MOV E P0001 T02390228
KDAB 181753Z 28004KT 1SM -TSRA BR SCT025CB BKN046 OVC065 24/23 A3002 RMK AO2 PK WND 27029/1721 LTG DSNT ALQDS RAE19B43 TSE16B18 SLP165 FRQ LTGCG ALQDS TS ALQDS MOV E P0018 60018 T02390233 10328 20239 55005 RVRNO
KDAB 181745Z 23008KT 1 1/4SM +TSRA BR SCT025 BKN041CB BKN060 25/23 A3003 RMK AO2 PK WND 27029/1721 LTG DSNT ALQDS RAE19B43 TSE16B18 OCNL LTGCG ALQDS TS ALQDS MOV E P0003 T02500233
KDAB 181718Z 29007KT 10SM -TSRA SCT045CB SCT065 BKN085 29/26 A3001 RMK AO2 LTG DSNT ALQDS TSE16B18 OCNL LTGCG ALQDS TS ALQDS MOV E P0003 T02940261
KDAB 181653Z 30016G20KT 8SM -RA SCT040CB SCT085 BKN250 31/25 A3000 RMK AO2 LTG DSNT SW-NW RAB52 SLP159 CB OHD NE SW-NW MOV NE P0000 T03060250
KDAB 181553Z 23008KT 10SM SCT033 SCT150 BKN250 32/25 A3002 RMK AO2 LTG DSNT N SLP166 T03170250
KDAB 181453Z 25011KT 10SM SCT027 SCT047 SCT150 BKN250 31/25 A3003 RMK AO2 SLP170 T03110250 50003
KDAB 181353Z COR 24007KT 10SM SCT030 SCT150 SCT250 29/26 A3004 RMK AO2 SLP170 T02940261
KDAB 181253Z 22007KT 10SM FEW030 SCT150 BKN250 27/26 A3003 RMK AO2 SLP169 CB DSNT W-NW T02720256
KDAB 181153Z 22006KT 10SM FEW030 SCT150 BKN250 26/26 A3003 RMK AO2 SLP167 CB DSNT W-NW T02560256 10256 20244 53003
KDAB 181053Z 19005KT 7SM FEW030 SCT150 BKN250 24/24 A3002 RMK AO2 SLP165 CB DSNT W NW T02440244
KDAB 180953Z 19004KT 9SM SCT150 SCT250 24/24 A3001 RMK AO2 SLP162 T02440244
KDAB 180853Z 19005KT 9SM FEW150 24/24 A3002 RMK AO2 SLP164 T02440244 56009
KDAB 180753Z 21004KT 10SM SCT150 24/24 A3002 RMK AO2 SLP166 T02440244
KDAB 180653Z 19005KT 10SM SCT150 24/24 A3003 RMK AO2 SLP169 T02440244
KDAB 180553Z 20003KT 10SM SCT150 25/25 A3004 RMK AO2 SLP173 T02500250 10278 20250 58003
KDAB 180453Z 19005KT 10SM SCT150 25/24 A3005 RMK AO2 SLP175 T02500244 403330244
KDAB 180353Z 18003KT 10SM SCT150 26/25 A3006 RMK AO2 SLP179 T02560250
KDAB 180253Z 16004KT 10SM BKN150 26/25 A3005 RMK AO2 SLP176 T02610250 53006
KDAB 180153Z 17004KT 10SM FEW075 BKN150 26/25 A3004 RMK AO2 SLP173 T02610250
KDAB 180053Z 19004KT 10SM FEW015 FEW075 OVC150 27/26 A3005 RMK AO2 SLP173 T02670261
KDAB 172353Z 00000KT 10SM FEW044 FEW075 OVC150 28/26 A3004 RMK AO2 SLP171 60000 T02780256 10333 20261 53002
KDAB 172253Z 13003KT 10SM FEW044 FEW075 OVC150 28/26 A3004 RMK AO2 SLP172 CB DSNT S T02780256
KDAB 172153Z 29005KT 10SM FEW044 SCT075 OVC150 28/25 A3002 RMK AO2 LTG DSNT SE TSE16 SLP166 TS MOVD E CB DSNT E-S T02780250
KDAB 172117Z 30005KT 10SM FEW044 SCT075 BKN150 28/25 A3003 RMK AO2 LTG DSNT E AND SE TSE16 TS MOVD E CB DSNT E-S T02780250
KDAB 172053Z 30006KT 10SM TS FEW044CB SCT075 BKN150 28/25 A3003 RMK AO2 LTG DSNT NE-S RAE44 SLP169 OCNL LTGICCG NE-SE-S TS NE-SE-S MOV E P0000 60000 T02780250 56005
KDAB 171953Z 26009G17KT 10SM -TSRA SCT044CB SCT055 BKN075 28/24 A3004 RMK AO2 WSHFT 1852 LTG DSNT NE-S SLP171 OCNL LTGICCG ALQDS TS ALQDS MOV E P0000 T02780244
KDAB 171909Z 29012KT 10SM TS SCT046CB SCT055 BKN070 29/23 A3003 RMK AO2 WSHFT 1852 LTG DSNT ALQDS TSB56 FRQ LTGICCG W-N TS W-N MOV E VCSH W-N T02940228
KDAB 171859Z 27015G25KT 10SM TS SCT046CB SCT055 BKN070 32/24 A3004 RMK AO2 LTG DSNT ALQDS FRQ LTGICCG W-N TS W-N MOV E VCSH W-N T03220239
KDAB 171853Z 23011KT 10SM SCT046CB SCT055 BKN070 33/24 A3005 RMK SLP171 CB OHD N W-NW
KDAB 171753Z 22012G17KT 10SM SCT043 SCT150 SCT250 33/24 A3005 RMK SLP174 T03330244 10333 20261 58014
KDAB 171653Z 20009KT 10SM SCT041 SCT150 SCT250 33/24 A3006 RMK SLP179 T03280239
KDAB 171553Z 21010KT 10SM SCT033 SCT150 SCT250 32/24 A3007 RMK SLP183 T03220239
KDAB 171453Z 23009KT 10SM FEW030 SCT250 31/24 A3009 RMK SLP187 T03060244 50004